Time;durP1;ratioP1;P1;durP2;ratioP2;P2;SDS_P1;SDS_P2;PMS_P1;PMS_P2;Temp;Humidity;BMP_temperature;BMP_pressure;BME280_temperature;BME280_humidity;BME280_pressure;Samples;Min_cycle;Max_cycle;Signal;HPM_P1;HPM_P2
2023/05/12 00:01:38;;;;;;;15.10;8.27;;;;;;;;;;5016667;28;20591;-72
2023/05/12 00:04:04;;;;;;;13.57;7.95;;;;;;;;;;5015206;28;20124;-72
2023/05/12 00:06:30;;;;;;;17.77;9.02;;;;;;;;;;5017758;28;20137;-72
2023/05/12 00:08:57;;;;;;;16.05;8.98;;;;;;;;;;5020413;28;20026;-71
2023/05/12 00:11:25;;;;;;;16.40;8.98;;;;;;;;;;5019345;28;20040;-73
2023/05/12 00:13:51;;;;;;;18.17;8.90;;;;;;;;;;5021879;28;20033;-72
2023/05/12 00:16:17;;;;;;;15.02;8.50;;;;;;;;;;5019884;28;20056;-72
2023/05/12 00:18:44;;;;;;;18.30;9.40;;;;;;;;;;5017135;28;20490;-72
2023/05/12 00:21:11;;;;;;;18.98;9.23;;;;;;;;;;5018193;28;20029;-72
2023/05/12 00:23:37;;;;;;;15.55;8.98;;;;;;;;;;5020683;28;21336;-72
2023/05/12 00:26:03;;;;;;;15.68;9.52;;;;;;;;;;5012980;28;20026;-72
2023/05/12 00:28:31;;;;;;;20.40;10.30;;;;;;;;;;5002648;28;20029;-71
2023/05/12 00:31:01;;;;;;;16.45;9.73;;;;;;;;;;5018976;28;20033;-71
2023/05/12 00:33:27;;;;;;;17.00;9.97;;;;;;;;;;5023796;28;20033;-72
2023/05/12 00:35:53;;;;;;;23.85;11.27;;;;;;;;;;5018848;28;20292;-72
2023/05/12 00:38:19;;;;;;;19.17;10.55;;;;;;;;;;5032836;28;20083;-73
2023/05/12 00:40:45;;;;;;;19.63;11.10;;;;;;;;;;5016298;28;20045;-72
2023/05/12 00:43:12;;;;;;;21.90;12.00;;;;;;;;;;5022318;28;20049;-72
2023/05/12 00:45:38;;;;;;;21.83;11.77;;;;;;;;;;5019685;28;20124;-73
2023/05/12 00:48:04;;;;;;;21.95;12.07;;;;;;;;;;5017637;28;20132;-73
2023/05/12 00:50:31;;;;;;;18.88;11.70;;;;;;;;;;5020380;28;20022;-74
2023/05/12 00:52:58;;;;;;;17.88;11.52;;;;;;;;;;5023714;28;20029;-72
2023/05/12 00:55:25;;;;;;;17.08;11.70;;;;;;;;;;5019947;28;20048;-73
2023/05/12 00:57:51;;;;;;;16.73;10.65;;;;;;;;;;5032363;28;20075;-73
2023/05/12 01:00:17;;;;;;;18.05;11.30;;;;;;;;;;5017289;28;20040;-73
2023/05/12 01:02:46;;;;;;;16.83;11.00;;;;;;;;;;5037978;28;20088;-73
2023/05/12 01:05:12;;;;;;;18.13;11.75;;;;;;;;;;5017933;28;20114;-71
2023/05/12 01:07:40;;;;;;;20.42;11.82;;;;;;;;;;5045788;28;20033;-72
2023/05/12 01:10:17;;;;;;;18.30;10.95;;;;;;;;;;5021328;28;20095;-72
2023/05/12 01:12:43;;;;;;;19.27;10.73;;;;;;;;;;5033518;28;20021;-71
2023/05/12 01:15:09;;;;;;;23.05;11.20;;;;;;;;;;5019165;28;20134;-72
2023/05/12 01:17:37;;;;;;;21.42;12.10;;;;;;;;;;5017502;28;20025;-72
2023/05/12 01:20:08;;;;;;;19.42;12.02;;;;;;;;;;5017414;28;20037;-72
2023/05/12 01:22:35;;;;;;;22.20;12.40;;;;;;;;;;5015326;28;20041;-72
2023/05/12 01:25:06;;;;;;;22.58;12.27;;;;;;;;;;5021117;28;20049;-72
2023/05/12 01:27:33;;;;;;;24.50;13.23;;;;;;;;;;5018478;28;20032;-72
2023/05/12 01:30:01;;;;;;;19.25;11.93;;;;;;;;;;5014579;28;20033;-72
2023/05/12 01:32:30;;;;;;;24.90;12.43;;;;;;;;;;5015651;28;20025;-72
2023/05/12 01:34:57;;;;;;;22.58;11.73;;;;;;;;;;5003631;28;20314;-73
2023/05/12 01:37:25;;;;;;;22.02;11.90;;;;;;;;;;5030022;28;20142;-73
2023/05/12 01:39:53;;;;;;;27.13;12.43;;;;;;;;;;5016949;28;20902;-73
2023/05/12 01:42:20;;;;;;;23.80;13.00;;;;;;;;;;5019525;28;20060;-73
2023/05/12 01:44:47;;;;;;;27.42;13.48;;;;;;;;;;5008090;28;20589;-73
2023/05/12 01:47:14;;;;;;;26.20;13.05;;;;;;;;;;5019613;28;20174;-74
2023/05/12 01:49:41;;;;;;;22.25;12.02;;;;;;;;;;5019492;28;20119;-74
2023/05/12 01:52:11;;;;;;;21.58;10.98;;;;;;;;;;5013649;28;20037;-74
2023/05/12 01:54:38;;;;;;;22.25;11.82;;;;;;;;;;5020898;28;20083;-74
2023/05/12 01:57:04;;;;;;;18.25;10.55;;;;;;;;;;5013397;28;20044;-72
2023/05/12 01:59:31;;;;;;;21.27;11.43;;;;;;;;;;5018360;28;20025;-73
2023/05/12 02:01:57;;;;;;;20.98;11.57;;;;;;;;;;5010461;28;20037;-74
2023/05/12 02:04:28;;;;;;;22.20;11.85;;;;;;;;;;5020768;28;20128;-74
2023/05/12 02:06:56;;;;;;;21.70;12.27;;;;;;;;;;5012369;28;20495;-74
2023/05/12 02:09:22;;;;;;;19.70;10.73;;;;;;;;;;5015755;28;20810;-75
2023/05/12 02:11:49;;;;;;;16.77;9.00;;;;;;;;;;5033759;28;20048;-74
2023/05/12 02:14:15;;;;;;;16.17;9.20;;;;;;;;;;5029282;28;20060;-73
2023/05/12 02:16:41;;;;;;;17.58;9.43;;;;;;;;;;5017498;28;20034;-74
2023/05/12 02:19:07;;;;;;;17.83;10.15;;;;;;;;;;5016820;28;20175;-75
2023/05/12 02:21:34;;;;;;;18.75;9.68;;;;;;;;;;5013471;28;20053;-75
2023/05/12 02:24:02;;;;;;;18.20;9.45;;;;;;;;;;5030200;28;20037;-74
2023/05/12 02:26:29;;;;;;;19.83;10.00;;;;;;;;;;5005587;28;20141;-74
2023/05/12 02:28:56;;;;;;;14.65;7.40;;;;;;;;;;5034051;28;20103;-75
2023/05/12 02:31:22;;;;;;;13.23;7.88;;;;;;;;;;5003703;28;20025;-75
2023/05/12 02:33:50;;;;;;;12.05;7.00;;;;;;;;;;5024545;28;20052;-74
2023/05/12 02:36:16;;;;;;;11.75;6.95;;;;;;;;;;5019913;28;20030;-74
2023/05/12 02:38:43;;;;;;;19.75;6.53;;;;;;;;;;5015028;28;20060;-74
2023/05/12 02:41:09;;;;;;;10.85;5.82;;;;;;;;;;5023252;28;20411;-74
2023/05/12 02:43:35;;;;;;;10.52;5.40;;;;;;;;;;5034156;28;20604;-75
2023/05/12 02:46:01;;;;;;;8.15;3.90;;;;;;;;;;5057017;28;20046;-77
2023/05/12 02:48:28;;;;;;;7.95;4.30;;;;;;;;;;5047102;28;20030;-74
2023/05/12 02:50:54;;;;;;;7.75;4.60;;;;;;;;;;5039905;28;20025;-74
2023/05/12 02:53:20;;;;;;;8.65;4.85;;;;;;;;;;5031730;28;20080;-74
2023/05/12 02:55:46;;;;;;;8.90;4.82;;;;;;;;;;5034672;28;20075;-75
2023/05/12 02:58:12;;;;;;;9.98;4.70;;;;;;;;;;5022758;28;20037;-75
2023/05/12 03:00:38;;;;;;;9.77;4.63;;;;;;;;;;5047142;28;20053;-75
2023/05/12 03:03:05;;;;;;;7.47;4.28;;;;;;;;;;5019249;28;20086;-73
2023/05/12 03:05:31;;;;;;;6.55;4.13;;;;;;;;;;5029381;28;20041;-74
2023/05/12 03:07:58;;;;;;;7.47;4.80;;;;;;;;;;5022021;28;20026;-73
2023/05/12 03:10:24;;;;;;;10.18;5.15;;;;;;;;;;5024908;28;20075;-73
2023/05/12 03:12:50;;;;;;;8.98;5.30;;;;;;;;;;5028494;28;20044;-74
2023/05/12 03:15:16;;;;;;;8.73;5.60;;;;;;;;;;5032563;28;20699;-73
2023/05/12 03:17:43;;;;;;;13.27;6.90;;;;;;;;;;5031296;28;20120;-74
2023/05/12 03:20:09;;;;;;;13.77;7.35;;;;;;;;;;5022579;28;20032;-73
2023/05/12 03:22:36;;;;;;;12.48;7.30;;;;;;;;;;5021588;28;20458;-72
2023/05/12 03:25:03;;;;;;;15.02;8.43;;;;;;;;;;5021893;28;20026;-74
2023/05/12 03:27:31;;;;;;;18.38;9.45;;;;;;;;;;5019167;28;20025;-73
2023/05/12 03:30:03;;;;;;;19.42;9.77;;;;;;;;;;5032335;28;20040;-73
2023/05/12 03:32:30;;;;;;;24.35;11.48;;;;;;;;;;5050032;28;20493;-73
2023/05/12 03:34:57;;;;;;;24.75;11.82;;;;;;;;;;5017870;28;20529;-73
2023/05/12 03:37:23;;;;;;;31.73;14.75;;;;;;;;;;5016822;28;20021;-74
2023/05/12 03:39:49;;;;;;;30.33;13.30;;;;;;;;;;5022059;28;20467;-74
2023/05/12 03:42:15;;;;;;;32.22;14.70;;;;;;;;;;5022690;28;20030;-74
2023/05/12 03:44:42;;;;;;;41.45;15.52;;;;;;;;;;5026344;28;20052;-74
2023/05/12 03:47:08;;;;;;;41.08;17.67;;;;;;;;;;5008147;28;20406;-74
2023/05/12 03:49:36;;;;;;;45.67;18.15;;;;;;;;;;5021374;28;20018;-74
2023/05/12 03:52:02;;;;;;;42.33;18.10;;;;;;;;;;5027677;28;20086;-74
2023/05/12 03:54:28;;;;;;;48.00;19.67;;;;;;;;;;5021000;28;20032;-74
2023/05/12 03:56:54;;;;;;;52.03;21.23;;;;;;;;;;5022324;28;20252;-74
2023/05/12 03:59:21;;;;;;;51.25;22.25;;;;;;;;;;5016132;28;20036;-73
2023/05/12 04:01:48;;;;;;;54.30;22.27;;;;;;;;;;5033139;28;20037;-74
2023/05/12 04:04:14;;;;;;;60.88;25.73;;;;;;;;;;5021079;28;20051;-73
2023/05/12 04:06:40;;;;;;;62.00;24.08;;;;;;;;;;5020125;28;20053;-74
2023/05/12 04:09:07;;;;;;;58.75;24.80;;;;;;;;;;5038456;28;20051;-73
2023/05/12 04:11:35;;;;;;;65.53;25.30;;;;;;;;;;5017533;28;20022;-74
2023/05/12 04:14:01;;;;;;;69.22;25.73;;;;;;;;;;5023805;28;20042;-73
2023/05/12 04:16:28;;;;;;;72.50;25.48;;;;;;;;;;5004888;28;20064;-73
2023/05/12 04:18:54;;;;;;;70.93;26.85;;;;;;;;;;5021223;28;20065;-74
2023/05/12 04:21:20;;;;;;;75.63;27.08;;;;;;;;;;5022881;28;20049;-74
2023/05/12 04:23:46;;;;;;;73.70;28.02;;;;;;;;;;5017771;28;20041;-73
2023/05/12 04:26:13;;;;;;;80.32;30.30;;;;;;;;;;5038778;28;20073;-74
2023/05/12 04:28:39;;;;;;;77.78;27.50;;;;;;;;;;5031902;28;20040;-73
2023/05/12 04:31:05;;;;;;;76.85;29.25;;;;;;;;;;5035325;28;20483;-73
2023/05/12 04:33:32;;;;;;;88.43;29.65;;;;;;;;;;5035461;28;20034;-72
2023/05/12 04:35:59;;;;;;;85.57;29.10;;;;;;;;;;5038889;28;20053;-72
2023/05/12 04:38:26;;;;;;;81.57;30.35;;;;;;;;;;5035449;28;20038;-72
2023/05/12 04:40:59;;;;;;;84.43;30.67;;;;;;;;;;5020412;28;20022;-73
2023/05/12 04:43:25;;;;;;;84.38;30.35;;;;;;;;;;5025044;28;20104;-75
2023/05/12 04:45:54;;;;;;;93.47;31.98;;;;;;;;;;5007052;28;20029;-73
2023/05/12 04:48:20;;;;;;;94.22;32.70;;;;;;;;;;5023623;28;20121;-73
2023/05/12 04:50:47;;;;;;;106.13;34.90;;;;;;;;;;5022435;28;20018;-72
2023/05/12 04:53:16;;;;;;;98.45;34.10;;;;;;;;;;5034592;28;20025;-73
2023/05/12 04:55:44;;;;;;;94.05;32.90;;;;;;;;;;5005841;28;20025;-73
2023/05/12 04:58:14;;;;;;;98.68;35.65;;;;;;;;;;5030447;28;20037;-73
2023/05/12 05:00:41;;;;;;;91.57;33.03;;;;;;;;;;5019303;28;20033;-74
2023/05/12 05:03:08;;;;;;;107.28;36.00;;;;;;;;;;5027100;28;20088;-73
2023/05/12 05:05:34;;;;;;;100.85;36.97;;;;;;;;;;5028824;28;20506;-74
2023/05/12 05:08:01;;;;;;;106.95;35.70;;;;;;;;;;5002708;28;20032;-72
2023/05/12 05:10:27;;;;;;;112.47;38.35;;;;;;;;;;5020470;28;20112;-72
2023/05/12 05:12:53;;;;;;;102.63;35.50;;;;;;;;;;5021227;28;20036;-74
2023/05/12 05:15:19;;;;;;;114.18;39.25;;;;;;;;;;5021061;28;20032;-74
2023/05/12 05:17:48;;;;;;;104.20;37.08;;;;;;;;;;5018625;28;20030;-72
2023/05/12 05:20:15;;;;;;;114.45;40.05;;;;;;;;;;5032165;28;20033;-74
2023/05/12 05:22:42;;;;;;;109.10;39.17;;;;;;;;;;5018282;28;20121;-75
2023/05/12 05:25:09;;;;;;;120.90;40.67;;;;;;;;;;5044804;28;20107;-74
2023/05/12 05:27:37;;;;;;;123.07;41.95;;;;;;;;;;5003573;28;20456;-75
2023/05/12 05:30:04;;;;;;;125.88;41.85;;;;;;;;;;5010378;28;20030;-75
2023/05/12 05:32:30;;;;;;;128.50;42.42;;;;;;;;;;5005001;28;20025;-73
2023/05/12 05:34:56;;;;;;;134.20;43.85;;;;;;;;;;5028615;28;20039;-74
2023/05/12 05:37:23;;;;;;;128.75;44.97;;;;;;;;;;5019647;28;20068;-74
2023/05/12 05:39:49;;;;;;;137.65;45.47;;;;;;;;;;5028052;28;20034;-74
2023/05/12 05:42:16;;;;;;;138.88;45.50;;;;;;;;;;5019572;28;20116;-74
2023/05/12 05:44:42;;;;;;;134.23;44.33;;;;;;;;;;5023070;28;20030;-75
2023/05/12 05:47:08;;;;;;;132.80;45.28;;;;;;;;;;5039113;28;20105;-74
2023/05/12 05:49:35;;;;;;;122.25;44.60;;;;;;;;;;5025458;28;20082;-75
2023/05/12 05:52:01;;;;;;;123.15;45.00;;;;;;;;;;5023745;28;20022;-74
2023/05/12 05:54:27;;;;;;;130.52;47.35;;;;;;;;;;5017637;28;20057;-74
2023/05/12 05:56:54;;;;;;;125.45;43.47;;;;;;;;;;5005927;28;20095;-75
2023/05/12 05:59:20;;;;;;;112.90;45.05;;;;;;;;;;5017885;28;20045;-74
2023/05/12 06:01:46;;;;;;;110.88;43.90;;;;;;;;;;5018369;28;20037;-75
2023/05/12 06:04:12;;;;;;;103.97;42.95;;;;;;;;;;5023217;28;20030;-76
2023/05/12 06:06:38;;;;;;;106.68;39.92;;;;;;;;;;5003367;28;20042;-75
2023/05/12 06:09:06;;;;;;;102.13;42.28;;;;;;;;;;5003106;28;20030;-76
2023/05/12 06:11:32;;;;;;;91.05;39.83;;;;;;;;;;5001225;28;20697;-74
2023/05/12 06:13:58;;;;;;;101.95;41.13;;;;;;;;;;5035312;28;20558;-76
2023/05/12 06:16:26;;;;;;;90.43;39.55;;;;;;;;;;5047583;28;20045;-75
2023/05/12 06:18:52;;;;;;;90.53;39.13;;;;;;;;;;5020666;28;20072;-74
2023/05/12 06:21:18;;;;;;;96.18;38.78;;;;;;;;;;5036096;28;20836;-75
2023/05/12 06:23:45;;;;;;;85.38;38.63;;;;;;;;;;5015226;28;20046;-74
2023/05/12 06:26:12;;;;;;;90.90;39.30;;;;;;;;;;5061121;28;20033;-73
2023/05/12 06:28:38;;;;;;;79.57;37.63;;;;;;;;;;5025535;28;20048;-75
2023/05/12 06:31:08;;;;;;;85.45;38.67;;;;;;;;;;5027715;28;20030;-74
2023/05/12 06:33:34;;;;;;;83.82;39.70;;;;;;;;;;5032949;28;20029;-74
2023/05/12 06:36:00;;;;;;;79.68;38.30;;;;;;;;;;5020636;28;20038;-71
2023/05/12 06:38:26;;;;;;;84.35;39.70;;;;;;;;;;5019629;28;20037;-72
2023/05/12 06:40:52;;;;;;;75.45;38.45;;;;;;;;;;5022868;28;20111;-73
2023/05/12 06:43:18;;;;;;;84.97;39.45;;;;;;;;;;5020573;28;20049;-73
2023/05/12 06:45:45;;;;;;;74.55;37.42;;;;;;;;;;5014163;28;20117;-74
2023/05/12 06:48:11;;;;;;;79.25;37.65;;;;;;;;;;5026850;28;20456;-74
2023/05/12 06:50:37;;;;;;;79.90;36.33;;;;;;;;;;5026047;28;20034;-74
2023/05/12 06:53:05;;;;;;;71.90;36.08;;;;;;;;;;5029792;28;20091;-73
2023/05/12 06:55:31;;;;;;;65.63;34.80;;;;;;;;;;5030402;28;20040;-74
2023/05/12 06:57:57;;;;;;;67.30;34.53;;;;;;;;;;5027820;28;20037;-74
2023/05/12 07:00:23;;;;;;;73.45;36.85;;;;;;;;;;5019229;28;20456;-73
2023/05/12 07:02:49;;;;;;;67.65;33.78;;;;;;;;;;5045370;28;20045;-73
2023/05/12 07:05:17;;;;;;;63.83;32.88;;;;;;;;;;5070107;28;20048;-74
2023/05/12 07:07:44;;;;;;;56.28;30.67;;;;;;;;;;5072804;28;20056;-74
2023/05/12 07:10:10;;;;;;;58.83;33.28;;;;;;;;;;5045314;28;20093;-74
2023/05/12 07:12:37;;;;;;;56.63;31.08;;;;;;;;;;5033438;28;20061;-73
2023/05/12 07:15:03;;;;;;;52.58;30.05;;;;;;;;;;5024928;28;20049;-74
2023/05/12 07:17:29;;;;;;;53.45;30.15;;;;;;;;;;5024867;28;20021;-75
2023/05/12 07:19:56;;;;;;;58.60;31.60;;;;;;;;;;5019350;28;20022;-74
2023/05/12 07:22:22;;;;;;;53.05;30.20;;;;;;;;;;5055215;28;20037;-74
2023/05/12 07:24:49;;;;;;;55.30;30.88;;;;;;;;;;5031224;28;20164;-74
2023/05/12 07:27:15;;;;;;;49.85;29.60;;;;;;;;;;5025286;28;20029;-74
2023/05/12 07:29:41;;;;;;;54.95;30.40;;;;;;;;;;5028819;28;20037;-75
2023/05/12 07:32:07;;;;;;;53.15;31.40;;;;;;;;;;5032571;28;20159;-74
2023/05/12 07:34:33;;;;;;;52.05;30.05;;;;;;;;;;5028959;28;20044;-75
2023/05/12 07:37:01;;;;;;;53.05;29.50;;;;;;;;;;5020552;28;20053;-75
2023/05/12 07:39:29;;;;;;;47.92;27.42;;;;;;;;;;5018497;28;20083;-76
2023/05/12 07:41:55;;;;;;;50.05;30.05;;;;;;;;;;5036878;28;20041;-74
2023/05/12 07:44:22;;;;;;;48.40;30.10;;;;;;;;;;5046274;28;20037;-74
2023/05/12 07:46:49;;;;;;;43.80;27.80;;;;;;;;;;5034077;28;20099;-73
2023/05/12 07:49:15;;;;;;;41.95;27.40;;;;;;;;;;5046366;28;20045;-75
2023/05/12 07:51:41;;;;;;;44.58;28.00;;;;;;;;;;5030560;28;20033;-74
2023/05/12 07:54:08;;;;;;;41.75;27.17;;;;;;;;;;5017759;28;20033;-74
2023/05/12 07:56:34;;;;;;;43.15;27.25;;;;;;;;;;5027612;28;20130;-75
2023/05/12 07:59:00;;;;;;;44.50;25.85;;;;;;;;;;5029014;28;20033;-73
2023/05/12 08:01:27;;;;;;;41.55;26.33;;;;;;;;;;5018404;28;20030;-74
2023/05/12 08:03:53;;;;;;;38.13;25.80;;;;;;;;;;5010413;28;20168;-75
2023/05/12 08:06:19;;;;;;;41.40;26.40;;;;;;;;;;5022587;28;20049;-74
2023/05/12 08:08:45;;;;;;;37.13;24.63;;;;;;;;;;5030256;28;20258;-75
2023/05/12 08:11:11;;;;;;;40.88;25.60;;;;;;;;;;5028371;28;20082;-74
2023/05/12 08:13:38;;;;;;;36.70;23.95;;;;;;;;;;5013244;28;20475;-73
2023/05/12 08:16:04;;;;;;;35.92;23.73;;;;;;;;;;5015419;28;20040;-74
2023/05/12 08:18:30;;;;;;;38.78;25.42;;;;;;;;;;5012541;28;20418;-73
2023/05/12 08:20:56;;;;;;;35.00;23.90;;;;;;;;;;5028712;28;20028;-75
2023/05/12 08:23:23;;;;;;;37.53;23.13;;;;;;;;;;5032225;28;20034;-73
2023/05/12 08:25:49;;;;;;;33.83;22.70;;;;;;;;;;5032097;28;20041;-73
2023/05/12 08:28:15;;;;;;;32.88;22.42;;;;;;;;;;5031944;28;20352;-73
2023/05/12 08:30:41;;;;;;;34.10;24.27;;;;;;;;;;5018646;28;20112;-73
2023/05/12 08:33:08;;;;;;;34.35;23.65;;;;;;;;;;5011260;28;20643;-73
2023/05/12 08:35:35;;;;;;;36.08;24.17;;;;;;;;;;5014715;28;20256;-73
2023/05/12 08:38:01;;;;;;;34.38;24.02;;;;;;;;;;5031268;28;20036;-73
2023/05/12 08:40:29;;;;;;;30.17;21.50;;;;;;;;;;5030369;28;20030;-74
2023/05/12 08:43:07;;;;;;;41.13;22.90;;;;;;;;;;5028306;28;20037;-73
2023/05/12 08:45:36;;;;;;;31.40;22.08;;;;;;;;;;5031186;28;20029;-73
2023/05/12 08:48:02;;;;;;;35.05;22.75;;;;;;;;;;5016684;28;20137;-72
2023/05/12 08:50:29;;;;;;;31.23;21.40;;;;;;;;;;5030469;28;20025;-72
2023/05/12 08:52:56;;;;;;;30.52;20.92;;;;;;;;;;5030443;28;20030;-73
2023/05/12 08:55:23;;;;;;;27.77;20.50;;;;;;;;;;5031264;28;20418;-72
2023/05/12 08:57:49;;;;;;;30.17;21.40;;;;;;;;;;5047805;28;20034;-72
2023/05/12 09:00:15;;;;;;;28.20;20.52;;;;;;;;;;5017837;28;20021;-75
2023/05/12 09:02:42;;;;;;;30.08;20.85;;;;;;;;;;5018452;28;20113;-72
2023/05/12 09:05:09;;;;;;;30.00;20.92;;;;;;;;;;5029300;28;20400;-74
2023/05/12 09:07:36;;;;;;;29.50;21.33;;;;;;;;;;5028670;28;20048;-72
2023/05/12 09:10:03;;;;;;;28.30;20.73;;;;;;;;;;5029851;28;20399;-74
2023/05/12 09:12:31;;;;;;;28.20;20.58;;;;;;;;;;5031009;28;20044;-73
2023/05/12 09:15:03;;;;;;;28.02;19.48;;;;;;;;;;5030471;28;20120;-73
2023/05/12 09:17:29;;;;;;;25.40;18.27;;;;;;;;;;5013902;28;20029;-74
2023/05/12 09:19:56;;;;;;;25.95;18.38;;;;;;;;;;5014717;28;20069;-74
2023/05/12 09:22:34;;;;;;;25.13;17.42;;;;;;;;;;5012297;28;20026;-74
2023/05/12 09:25:01;;;;;;;25.80;18.00;;;;;;;;;;5052782;28;20045;-73
2023/05/12 09:27:28;;;;;;;22.50;16.52;;;;;;;;;;5022366;28;20104;-74
2023/05/12 09:29:54;;;;;;;19.92;16.02;;;;;;;;;;5018556;28;20029;-74
2023/05/12 09:32:31;;;;;;;20.73;15.98;;;;;;;;;;4999711;28;20033;-75
2023/05/12 09:35:02;;;;;;;20.70;15.85;;;;;;;;;;5021092;28;20034;-74
2023/05/12 09:37:31;;;;;;;19.67;15.68;;;;;;;;;;5017055;28;20029;-74
2023/05/12 09:40:05;;;;;;;18.42;14.60;;;;;;;;;;5023676;28;20545;-74
2023/05/12 09:42:32;;;;;;;23.98;15.20;;;;;;;;;;5047666;28;20562;-74
2023/05/12 09:44:59;;;;;;;19.98;14.65;;;;;;;;;;5019788;28;20029;-75
2023/05/12 09:47:28;;;;;;;21.85;14.77;;;;;;;;;;5046454;28;20072;-75
2023/05/12 09:49:56;;;;;;;22.98;14.60;;;;;;;;;;5020687;28;20033;-74
2023/05/12 09:52:22;;;;;;;19.92;14.07;;;;;;;;;;5020059;28;20033;-73
2023/05/12 09:54:51;;;;;;;18.70;13.88;;;;;;;;;;5021925;28;20032;-75
2023/05/12 09:57:18;;;;;;;17.45;13.55;;;;;;;;;;5018853;28;20140;-74
2023/05/12 09:59:46;;;;;;;14.45;12.32;;;;;;;;;;5031124;28;20049;-74
2023/05/12 10:02:15;;;;;;;14.98;11.98;;;;;;;;;;5042576;28;20425;-72
2023/05/12 10:04:50;;;;;;;17.08;12.02;;;;;;;;;;5007829;28;20128;-73
2023/05/12 10:07:16;;;;;;;15.05;11.60;;;;;;;;;;5020227;28;20037;-72
2023/05/12 10:09:44;;;;;;;13.13;11.23;;;;;;;;;;5016650;28;20021;-74
2023/05/12 10:12:11;;;;;;;17.58;12.63;;;;;;;;;;5019914;28;20040;-75
2023/05/12 10:14:37;;;;;;;17.90;13.57;;;;;;;;;;5035362;28;20038;-72
2023/05/12 10:17:08;;;;;;;17.50;13.70;;;;;;;;;;5021409;28;20037;-75
2023/05/12 10:19:34;;;;;;;23.52;17.83;;;;;;;;;;5038246;28;20044;-73
2023/05/12 10:22:01;;;;;;;26.90;19.42;;;;;;;;;;5013279;28;20700;-73
2023/05/12 10:24:27;;;;;;;22.23;17.48;;;;;;;;;;5013933;28;20121;-74
2023/05/12 10:26:55;;;;;;;15.07;11.30;;;;;;;;;;5026691;28;20025;-74
2023/05/12 10:29:28;;;;;;;12.88;10.07;;;;;;;;;;5015943;28;20022;-74
2023/05/12 10:31:57;;;;;;;12.15;9.75;;;;;;;;;;5012963;28;20034;-74
2023/05/12 10:34:29;;;;;;;20.42;16.33;;;;;;;;;;5022257;28;20039;-73
2023/05/12 10:36:57;;;;;;;18.92;15.95;;;;;;;;;;5018623;28;20234;-74
2023/05/12 10:39:28;;;;;;;18.58;15.30;;;;;;;;;;5017608;28;20383;-74
2023/05/12 10:42:00;;;;;;;19.80;13.10;;;;;;;;;;5018121;28;21884;-73
2023/05/12 10:44:28;;;;;;;17.83;11.85;;;;;;;;;;5027027;28;20030;-75
2023/05/12 10:47:00;;;;;;;16.50;14.05;;;;;;;;;;5024250;28;20024;-75
2023/05/12 10:49:36;;;;;;;14.73;10.00;;;;;;;;;;5022540;28;20484;-74
2023/05/12 10:52:02;;;;;;;12.60;9.70;;;;;;;;;;5036491;28;20026;-77
2023/05/12 10:54:28;;;;;;;10.73;9.07;;;;;;;;;;5024290;28;20033;-73
2023/05/12 10:56:58;;;;;;;10.20;8.73;;;;;;;;;;5023775;28;20117;-74
2023/05/12 10:59:28;;;;;;;12.63;8.73;;;;;;;;;;5021236;28;20056;-74
2023/05/12 11:02:01;;;;;;;9.80;7.55;;;;;;;;;;5031827;28;20391;-74
2023/05/12 11:04:46;;;;;;;11.23;6.45;;;;;;;;;;5050605;28;20425;-74
2023/05/12 11:07:14;;;;;;;11.48;8.38;;;;;;;;;;5031720;28;20060;-76
2023/05/12 11:09:41;;;;;;;9.88;7.95;;;;;;;;;;5032467;28;20398;-75
2023/05/12 11:12:09;;;;;;;12.55;7.30;;;;;;;;;;5025600;28;20030;-74
2023/05/12 11:14:35;;;;;;;11.20;7.70;;;;;;;;;;5011570;28;20021;-74
2023/05/12 11:17:02;;;;;;;10.02;7.05;;;;;;;;;;5027131;28;20026;-75
2023/05/12 11:19:29;;;;;;;11.85;7.22;;;;;;;;;;5012423;28;20022;-74
2023/05/12 11:21:55;;;;;;;8.52;5.90;;;;;;;;;;5029863;28;20785;-73
2023/05/12 11:24:22;;;;;;;8.00;4.70;;;;;;;;;;5027164;28;20040;-73
2023/05/12 11:26:50;;;;;;;7.20;4.20;;;;;;;;;;5020494;28;20096;-72
2023/05/12 11:29:20;;;;;;;6.93;4.70;;;;;;;;;;5016211;28;20030;-73
2023/05/12 11:31:47;;;;;;;8.80;4.57;;;;;;;;;;5026991;28;20025;-73
2023/05/12 11:34:14;;;;;;;7.50;4.70;;;;;;;;;;5029241;28;20026;-74
2023/05/12 11:36:41;;;;;;;7.53;4.60;;;;;;;;;;5024362;28;20033;-73
2023/05/12 11:39:13;;;;;;;10.55;4.78;;;;;;;;;;5023058;28;20295;-73
2023/05/12 11:41:39;;;;;;;10.02;6.25;;;;;;;;;;5030302;28;20025;-74
2023/05/12 11:44:15;;;;;;;7.38;5.70;;;;;;;;;;5027659;28;20048;-74
2023/05/12 11:46:41;;;;;;;6.38;5.72;;;;;;;;;;5037537;28;20088;-74
2023/05/12 11:49:11;;;;;;;7.80;6.47;;;;;;;;;;5025554;28;20507;-74
2023/05/12 11:51:41;;;;;;;7.10;6.05;;;;;;;;;;5026007;28;20025;-73
2023/05/12 11:54:08;;;;;;;8.00;6.35;;;;;;;;;;5023500;28;20037;-75
2023/05/12 11:56:34;;;;;;;11.05;6.38;;;;;;;;;;5023632;28;20470;-74
2023/05/12 11:59:00;;;;;;;9.65;7.35;;;;;;;;;;5037756;28;20079;-73
2023/05/12 12:01:26;;;;;;;9.38;7.70;;;;;;;;;;5037242;28;20030;-74
2023/05/12 12:03:53;;;;;;;14.32;8.00;;;;;;;;;;5029809;28;20056;-74
2023/05/12 12:06:20;;;;;;;14.43;7.13;;;;;;;;;;5030961;28;20061;-73
2023/05/12 12:08:53;;;;;;;10.68;6.68;;;;;;;;;;5030502;28;20099;-74
2023/05/12 12:11:20;;;;;;;11.18;6.68;;;;;;;;;;5029396;28;20032;-74
2023/05/12 12:13:55;;;;;;;9.10;6.32;;;;;;;;;;5030131;28;20071;-75
2023/05/12 12:16:22;;;;;;;10.65;6.32;;;;;;;;;;5027435;28;20029;-73
2023/05/12 12:18:48;;;;;;;7.93;6.65;;;;;;;;;;5011138;28;20025;-74
2023/05/12 12:21:14;;;;;;;10.65;6.45;;;;;;;;;;5062486;28;20141;-74
2023/05/12 12:23:41;;;;;;;8.32;6.40;;;;;;;;;;5026669;28;20034;-75
2023/05/12 12:26:07;;;;;;;9.30;6.63;;;;;;;;;;5017958;28;20044;-73
2023/05/12 12:28:34;;;;;;;9.80;5.78;;;;;;;;;;5031841;28;20041;-73
2023/05/12 12:31:00;;;;;;;7.40;5.25;;;;;;;;;;5044566;28;20064;-73
2023/05/12 12:33:26;;;;;;;6.65;5.43;;;;;;;;;;5030530;28;20038;-74
2023/05/12 12:35:52;;;;;;;6.40;5.15;;;;;;;;;;5031938;28;20084;-74
2023/05/12 12:38:19;;;;;;;8.63;5.25;;;;;;;;;;5046909;28;20047;-74
2023/05/12 12:40:46;;;;;;;13.90;6.70;;;;;;;;;;5054345;28;20067;-74
2023/05/12 12:43:12;;;;;;;13.48;9.32;;;;;;;;;;5028747;28;20053;-73
2023/05/12 12:45:38;;;;;;;12.57;9.05;;;;;;;;;;5028470;28;20127;-73
2023/05/12 12:48:05;;;;;;;12.10;9.52;;;;;;;;;;5026107;28;20021;-74
2023/05/12 12:50:32;;;;;;;17.60;9.73;;;;;;;;;;5030554;28;20033;-73
2023/05/12 12:52:58;;;;;;;15.38;10.02;;;;;;;;;;5029235;28;20022;-74
2023/05/12 12:55:24;;;;;;;15.52;9.20;;;;;;;;;;5028700;28;20056;-74
2023/05/12 12:57:50;;;;;;;11.45;9.32;;;;;;;;;;5043030;28;20030;-74
2023/05/12 13:00:17;;;;;;;13.25;8.85;;;;;;;;;;5042329;28;20026;-74
2023/05/12 13:02:43;;;;;;;12.27;8.75;;;;;;;;;;5011543;28;20038;-75
2023/05/12 13:05:09;;;;;;;14.30;8.77;;;;;;;;;;5021747;28;20037;-73
2023/05/12 13:07:36;;;;;;;12.88;8.80;;;;;;;;;;5027777;28;20071;-74
2023/05/12 13:10:03;;;;;;;15.48;8.52;;;;;;;;;;5023147;28;20527;-74
2023/05/12 13:12:30;;;;;;;9.65;8.18;;;;;;;;;;5052074;28;20029;-74
2023/05/12 13:14:56;;;;;;;13.10;8.70;;;;;;;;;;5012809;28;20020;-73
2023/05/12 13:17:22;;;;;;;13.63;8.70;;;;;;;;;;5030979;28;20032;-75
2023/05/12 13:19:49;;;;;;;12.95;7.95;;;;;;;;;;5018668;28;20034;-75
2023/05/12 13:22:15;;;;;;;12.85;8.63;;;;;;;;;;5019633;28;20046;-73
2023/05/12 13:24:41;;;;;;;13.48;8.57;;;;;;;;;;5028717;28;20358;-74
2023/05/12 13:27:08;;;;;;;10.63;7.65;;;;;;;;;;5036906;28;20037;-73
2023/05/12 13:29:36;;;;;;;9.52;6.70;;;;;;;;;;5033300;28;20026;-73
2023/05/12 13:32:02;;;;;;;10.52;7.82;;;;;;;;;;5055251;28;20076;-74
2023/05/12 13:34:28;;;;;;;9.93;6.75;;;;;;;;;;5017852;28;20033;-74
2023/05/12 13:36:54;;;;;;;9.73;6.97;;;;;;;;;;5001357;28;20585;-73
2023/05/12 13:39:21;;;;;;;8.65;6.30;;;;;;;;;;5011865;28;20518;-73
2023/05/12 13:41:47;;;;;;;10.98;6.72;;;;;;;;;;5025667;28;20092;-73
2023/05/12 13:44:13;;;;;;;10.48;6.57;;;;;;;;;;5025163;28;20152;-72
2023/05/12 13:46:39;;;;;;;10.23;7.03;;;;;;;;;;5047213;28;20017;-72
2023/05/12 13:49:05;;;;;;;9.43;6.72;;;;;;;;;;5059596;28;20034;-72
2023/05/12 13:51:31;;;;;;;8.40;6.75;;;;;;;;;;5020929;28;20088;-73
2023/05/12 13:53:58;;;;;;;10.52;6.63;;;;;;;;;;5025991;28;20033;-72
2023/05/12 13:56:24;;;;;;;9.93;6.72;;;;;;;;;;5028976;28;20045;-73
2023/05/12 13:58:50;;;;;;;8.50;6.32;;;;;;;;;;5029578;28;20030;-73
2023/05/12 14:01:17;;;;;;;9.90;6.38;;;;;;;;;;5017736;28;20037;-73
2023/05/12 14:03:44;;;;;;;13.52;7.05;;;;;;;;;;5023932;28;20029;-72
2023/05/12 14:06:11;;;;;;;10.88;6.35;;;;;;;;;;5010035;28;20053;-72
2023/05/12 14:08:38;;;;;;;8.77;6.28;;;;;;;;;;5017320;28;20025;-74
2023/05/12 14:11:05;;;;;;;8.40;5.88;;;;;;;;;;5028362;28;20037;-73
2023/05/12 14:13:31;;;;;;;8.25;6.80;;;;;;;;;;5022960;28;20040;-72
2023/05/12 14:15:58;;;;;;;8.77;6.30;;;;;;;;;;5044528;28;20042;-73
2023/05/12 14:18:24;;;;;;;7.30;5.50;;;;;;;;;;5021292;28;20083;-73
2023/05/12 14:20:51;;;;;;;10.02;7.10;;;;;;;;;;5024501;28;20371;-74
2023/05/12 14:23:17;;;;;;;12.10;6.07;;;;;;;;;;5021687;28;20052;-73